Latest Coastal Weather Observations for Christmas Island

IDW60701

Issued at 10:22 am WST Monday 8 February 2016 (issued every 10 minutes, with the page automatically refreshed every 10 minutes)

About coastal observations | Map of coastal stations | Coastal observations for WA | Marine services | Other Formats
Station Details ID: 200790 Name: CHRISTMAS ISLAND AERO Lat: -10.45 Lon: 105.69 Height: 261.0 m
Data from the previous 72 hours. | See also: Recent months at Christmas Island
Date/Time
WST
Temp

°C
Wind Pressure Rain
since 9am
mm
Weather Cloud Vis
km
Sea
Height
m
Swell
Dir
 
Speed
knots
Gust
knots
hPa Trend Height
m
Period
s
Dir
08/10:00am 28.0 E 7 9 1011.5 - 13.2 - Mostly cloudy 10 - - - -
08/09:49am 27.5 E 7 9 1013.2 - 13.2 - Partly cloudy 10 - - - -
08/09:30am 27.0 SE 7 11 1013.0 - 13.2 - Partly cloudy 10 - - - -
08/09:00am 26.2 ESE 3 4 1012.8 - 13.2 - Partly cloudy 10 - - - -
08/08:36am 26.2 ESE 3 5 1012.7 - 13.2 - Partly cloudy 10 - - - -
08/08:30am 26.2 ESE 3 5 1012.6 - 13.2 - Partly cloudy 10 - - - -
08/08:00am 26.0 NE 3 4 1012.2 - 13.2 - - 10 - - - -
08/07:30am 24.4 CALM 0 0 1011.7 - 13.2 - Partly cloudy 10 - - - -
08/07:26am 24.1 CALM 0 0 1011.7 - 13.2 - Partly cloudy 10 - - - -
08/07:12am 24.0 CALM 0 0 1011.6 - 13.2 - Partly cloudy 10 - - - -
08/07:00am 24.0 CALM 0 0 1010.0 - 13.2 - Mostly clear 10 - - - -
08/06:53am 24.0 CALM 0 0 1011.5 - 13.2 - Partly cloudy 10 - - - -
08/06:34am 24.1 CALM 0 0 1011.3 - 13.2 - Partly cloudy 1 - - - -
08/06:30am 24.1 CALM 0 0 1011.3 - 13.2 - Partly cloudy 5 - - - -
08/06:00am 24.0 CALM 0 0 1011.2 - 13.2 - Partly cloudy 10 - - - -
08/05:30am 24.0 CALM 0 0 1011.1 - 13.2 - Partly cloudy 10 - - - -
08/05:00am 23.9 CALM 0 0 1011.0 - 13.2 - Partly cloudy 10 - - - -
08/04:30am 23.9 CALM 0 0 1011.0 - 13.2 - - 10 - - - -
08/04:16am 24.0 CALM 0 0 1011.2 - 13.2 - - 10 - - - -
08/04:00am 24.1 CALM 0 0 1009.8 - 13.0 - Mostly clear 5 - - - -
08/03:54am 24.1 CALM 0 0 1011.5 - 13.0 - Partly cloudy 6 - - - -
08/03:30am 24.3 CALM 0 0 1011.9 - 13.0 - Partly cloudy 10 - - - -
08/03:06am 24.5 CALM 0 0 1012.1 - 13.0 - Partly cloudy 5 - - - -
08/03:00am 24.5 CALM 0 0 1012.1 - 13.0 - Partly cloudy 10 - - - -
08/02:30am 24.8 CALM 0 0 1012.6 - 13.0 - Partly cloudy 10 - - - -
08/02:20am 24.7 CALM 0 0 1012.7 - 13.0 - Partly cloudy 10 - - - -
08/02:00am 25.0 SSE 3 7 1013.1 - 12.2 - Partly cloudy 4 - - - -
08/01:41am 24.8 CALM 0 0 1013.2 - 10.2 - Partly cloudy 6 - - - -
08/01:30am 24.8 CALM 0 0 1013.2 - 10.0 - Partly cloudy 10 - - - -
08/01:18am 24.9 CALM 0 0 1013.2 - 10.0 - Partly cloudy 6 - - - -
08/01:00am 24.8 CALM 0 0 1011.9 - 10.0 - Cloudy 10 - - - -
08/12:30am 24.7 CALM 0 0 1013.6 - 10.0 - Cloudy 10 - - - -
08/12:00am 24.6 CALM 0 0 1013.6 - 10.0 - Cloudy 10 - - - -
 
Date/Time
WST
Temp

°C
Wind Pressure Rain
since 9am
mm
Weather Cloud Vis
km
Sea
Height
m
Swell
Dir
 
Speed
knots
Gust
knots
hPa Trend Height
m
Period
s
Dir
07/11:30pm 24.3 CALM 0 0 1013.6 - 10.0 - Partly cloudy 10 - - - -
07/11:00pm 24.4 CALM 0 0 1013.5 - 10.0 - Partly cloudy 10 - - - -
07/10:30pm 24.6 CALM 0 0 1013.3 - 10.0 - Cloudy 10 - - - -
07/10:00pm 24.6 SSW 1 3 1011.4 - 10.0 - Mostly cloudy 10 - - - -
07/09:30pm 24.4 CALM 0 0 1012.6 - 10.0 - Partly cloudy 10 - - - -
07/09:00pm 24.6 CALM 0 0 1012.2 - 10.0 - Partly cloudy 10 - - - -
07/08:30pm 24.8 CALM 0 0 1011.6 - 10.0 - Partly cloudy 10 - - - -
07/08:00pm 25.0 SSW 2 3 1011.2 - 10.0 - - 10 - - - -
07/07:30pm 25.4 SSW 3 4 1010.7 - 10.0 - - 10 - - - -
07/07:00pm 25.7 SSW 4 5 1008.7 - 10.0 - - 10 - - - -
07/06:30pm 25.9 S 3 5 1010.0 - 10.0 - - 10 - - - -
07/06:00pm 26.6 S 3 6 1009.8 - 10.0 - Partly cloudy 10 - - - -
07/05:51pm 26.3 S 4 6 1009.7 - 10.0 - Partly cloudy 10 - - - -
07/05:30pm 26.0 ESE 6 8 1009.7 - 10.0 - Partly cloudy 10 - - - -
07/05:00pm 25.9 ESE 4 6 1009.7 - 10.0 - Partly cloudy 10 - - - -
07/04:38pm 26.1 S 2 6 1009.8 - 10.0 - Partly cloudy 6 - - - -
07/04:32pm 26.2 CALM 0 2 1009.8 - 10.0 - Partly cloudy 10 - - - -
07/04:30pm 25.7 CALM 0 3 1009.8 - 10.0 - Partly cloudy 10 - - - -
07/04:16pm 25.4 SW 1 4 1010.0 - 9.8 - Partly cloudy 10 - - - -
07/04:00pm 24.8 WSW 5 7 1008.5 - 9.8 - Cloudy 10 - - - -
07/03:30pm 25.0 WSW 5 9 1010.6 - 9.8 - Partly cloudy 10 - - - -
07/03:00pm 24.4 WNW 7 12 1011.1 - 9.8 - Partly cloudy 10 - - - -
07/02:45pm 24.2 WNW 7 11 1011.3 - 9.8 - Partly cloudy 10 - - - -
07/02:30pm 24.3 WNW 6 10 1011.6 - 9.6 - Partly cloudy 6 - - - -
07/02:00pm 24.2 WNW 8 13 1012.1 - 6.4 - Partly cloudy 5 - - - -
07/01:38pm 24.8 WNW 6 11 1012.1 - 1.6 - Cloudy 6 - - - -
07/01:30pm 24.9 NW 5 10 1012.2 - 0.2 - Cloudy 10 - - - -
07/01:00pm 26.2 N 7 11 1010.6 - 0.0 - Cloudy 10 - - - -
07/12:30pm 27.0 N 7 9 1012.3 - 0.0 - Partly cloudy 10 - - - -
07/12:17pm 27.7 E 6 10 1012.3 - 0.0 - Partly cloudy 10 - - - -
07/12:13pm 27.6 E 5 8 1012.3 - 0.0 - Partly cloudy 10 - - - -
07/12:00pm 27.5 SSE 2 5 1012.3 - 0.0 - Partly cloudy 10 - - - -
07/11:55am 27.2 SSE 4 6 1012.3 - 0.0 - Partly cloudy 10 - - - -
07/11:53am 27.4 SSE 4 6 1012.3 - 0.0 - Partly cloudy 10 - - - -
07/11:41am 27.5 SSE 3 5 1012.3 - 0.0 - Partly cloudy 10 - - - -
07/11:30am 27.6 SSE 5 8 1012.3 - 0.0 - Partly cloudy 10 - - - -
07/11:00am 27.1 S 4 5 1012.5 - 0.0 - Partly cloudy 10 - - - -
07/10:30am 28.6 SE 6 9 1012.2 - 0.0 - Partly cloudy 10 - - - -
07/10:00am 29.0 E 5 7 1010.5 - 0.0 - Mostly cloudy 10 - - - -
07/09:30am 28.6 ESE 5 7 1012.1 - 0.0 - Partly cloudy 10 - - - -
07/09:00am 28.3 SE 4 7 1011.7 - 0.0 - Partly cloudy 10 - - - -
07/08:30am 27.0 CALM 0 0 1011.5 - 0.0 - Partly cloudy 10 - - - -
07/08:00am 25.2 CALM 0 0 1011.2 - 0.0 - Partly cloudy 10 - - - -
07/07:30am 23.9 CALM 0 0 1010.9 - 0.0 - Partly cloudy 10 - - - -
07/07:00am 23.3 SE 2 4 1009.1 - 0.0 - Cloudy 10 - - - -
07/06:30am 23.4 SE 3 3 1010.5 - 0.0 - - 10 - - - -
07/06:00am 23.6 CALM 0 0 1010.3 - 0.0 - - 10 - - - -
07/05:30am 24.0 SE 2 3 1010.2 - 0.0 - Partly cloudy 10 - - - -
07/05:00am 24.2 SE 3 6 1010.0 - 0.0 - Partly cloudy 10 - - - -
07/04:30am 24.0 SE 2 3 1009.8 - 0.0 - Partly cloudy 10 - - - -
07/04:00am 24.4 SE 2 4 1008.1 - 0.0 - Cloudy 10 - - - -
07/03:30am 24.4 SE 3 4 1010.0 - 0.0 - Cloudy 10 - - - -
07/03:00am 24.2 SE 3 5 1010.2 - 0.0 - Partly cloudy 10 - - - -
07/02:30am 23.7 CALM 0 0 1010.5 - 0.0 - Cloudy 10 - - - -
07/02:00am 23.4 CALM 0 0 1010.9 - 0.0 - Partly cloudy 10 - - - -
07/01:30am 23.4 CALM 0 0 1011.4 - 0.0 - Partly cloudy 10 - - - -
07/01:00am 23.5 CALM 0 0 1010.3 - 0.0 - - 10 - - - -
07/12:30am 23.6 CALM 0 0 1012.3 - 0.0 - - 10 - - - -
07/12:00am 23.7 CALM 0 0 1012.3 - 0.0 - - 10 - - - -
 
Date/Time
WST
Temp

°C
Wind Pressure Rain
since 9am
mm
Weather Cloud Vis
km
Sea
Height
m
Swell
Dir
 
Speed
knots
Gust
knots
hPa Trend Height
m
Period
s
Dir
06/11:30pm 23.8 CALM 0 0 1012.3 - 0.0 - - 10 - - - -
06/11:00pm 24.0 CALM 0 0 1012.2 - 0.0 - - 10 - - - -
06/10:30pm 24.1 CALM 0 0 1011.9 - 0.0 - - 10 - - - -
06/10:00pm 24.2 CALM 0 0 1010.0 - 0.0 - Cloudy 10 - - - -
06/09:30pm 24.0 CALM 0 0 1011.1 - 0.0 - - 10 - - - -
06/09:00pm 24.1 CALM 0 0 1010.7 - 0.0 - - 10 - - - -
06/08:30pm 24.5 CALM 0 0 1010.5 - 0.0 - - 10 - - - -
06/08:00pm 25.2 CALM 0 0 1010.1 - 0.0 - - 10 - - - -
06/07:30pm 26.0 SE 1 3 1009.7 - 0.0 - - 10 - - - -
06/07:00pm 26.7 SE 3 5 1007.5 - 0.0 - - 10 - - - -
06/06:30pm 27.4 SE 4 7 1009.0 - 0.0 - - 10 - - - -
06/06:00pm 27.5 ESE 4 7 1008.7 - 0.0 - - 10 - - - -
06/05:30pm 27.6 SE 6 8 1008.5 - 0.0 - - 10 - - - -
06/05:00pm 27.5 SE 5 7 1008.7 - 0.0 - Partly cloudy 10 - - - -
06/04:30pm 27.4 SE 6 8 1008.8 - 0.0 - - 10 - - - -
06/04:00pm 27.5 ESE 7 9 1007.3 - 0.0 - Cloudy 10 - - - -
06/03:30pm 27.6 ESE 5 8 1009.2 - 0.0 - Partly cloudy 10 - - - -
06/03:00pm 27.5 ESE 7 10 1009.5 - 0.0 - Partly cloudy 10 - - - -
06/02:30pm 27.5 E 7 10 1009.6 - 0.0 - Partly cloudy 10 - - - -
06/02:22pm 27.5 ESE 8 11 1009.6 - 0.0 - Partly cloudy 10 - - - -
06/02:00pm 27.7 E 8 11 1009.9 - 0.0 - Partly cloudy 10 - - - -
06/01:30pm 27.6 ESE 7 10 1010.1 - 0.0 - Partly cloudy 10 - - - -
06/01:00pm 27.5 ESE 8 10 1008.9 - 0.0 - Cloudy 10 - - - -
06/12:52pm 27.8 E 7 10 1010.6 - 0.0 - Cloudy 10 - - - -
06/12:30pm 27.3 E 8 11 1010.9 - 0.0 - Partly cloudy 10 - - - -
06/12:00pm 28.0 E 7 11 1011.2 - 0.0 - Partly cloudy 10 - - - -
06/11:30am 28.5 ESE 7 10 1011.5 - 0.0 - - 10 - - - -
06/11:00am 28.3 ESE 7 9 1011.6 - 0.0 - - 10 - - - -
06/10:30am 28.0 ESE 7 11 1011.8 - 0.0 - Partly cloudy 10 - - - -
06/10:00am 26.9 ESE 6 7 1010.4 - 0.2 - Cloudy 10 - - - -
06/09:30am 26.6 SE 6 9 1012.1 - 0.2 - Partly cloudy 10 - - - -
06/09:00am 26.4 SE 5 7 1011.9 - 0.2 - Partly cloudy 10 - - - -
06/08:30am 25.7 SSE 4 6 1011.6 - 0.2 - Partly cloudy 10 - - - -
06/08:00am 25.0 SSE 3 6 1011.1 - 0.2 - Partly cloudy 10 - - - -
06/07:30am 24.6 SSE 4 6 1010.8 - 0.2 - Cloudy 10 - - - -
06/07:00am 24.1 SSE 4 5 1008.8 - 0.2 - Cloudy 10 - - - -
06/06:30am 24.0 SSE 4 6 1010.0 - 0.2 - Partly cloudy 10 - - - -
06/06:00am 24.2 SSE 3 4 1009.9 - 0.2 - Partly cloudy 10 - - - -
06/05:30am 24.3 S 3 5 1009.6 - 0.0 - Partly cloudy 10 - - - -
06/05:00am 24.2 SSW 3 5 1009.5 - 0.0 - Partly cloudy 10 - - - -
06/04:30am 24.3 SSW 1 4 1009.8 - 0.0 - Cloudy 10 - - - -
06/04:00am 24.3 SSW 2 3 1008.4 - 0.0 - Mostly cloudy 10 - - - -
06/03:30am 24.0 SSW 2 3 1009.9 - 0.0 - Partly cloudy 10 - - - -
06/03:00am 24.0 SSW 2 4 1010.2 - 0.0 - Partly cloudy 10 - - - -
06/02:30am 24.0 SSW 4 5 1010.7 - 0.0 - Partly cloudy 10 - - - -
06/02:00am 24.4 S 4 5 1011.2 - 0.0 - Partly cloudy 10 - - - -
06/01:30am 24.6 SSE 2 4 1011.5 - 0.0 - Partly cloudy 10 - - - -
06/01:00am 24.7 CALM 0 0 1010.2 - 0.0 - Cloudy 10 - - - -
06/12:30am 24.7 CALM 0 0 1011.9 - 0.0 - Partly cloudy 10 - - - -
06/12:00am 24.7 SSE 3 4 1012.2 - 0.0 - Partly cloudy 10 - - - -
 
Date/Time
WST
Temp

°C
Wind Pressure Rain
since 9am
mm
Weather Cloud Vis
km
Sea
Height
m
Swell
Dir
 
Speed
knots
Gust
knots
hPa Trend Height
m
Period
s
Dir
05/11:30pm 24.6 SSE 3 4 1012.2 - 0.0 - Partly cloudy 10 - - - -
05/11:00pm 24.8 SSE 1 4 1012.1 - 0.0 - Cloudy 10 - - - -
05/10:30pm 24.9 SSE 3 5 1011.8 - 0.0 - Partly cloudy 10 - - - -
05/10:00pm 24.2 CALM 0 0 1010.0 - 0.0 - Mostly cloudy 10 - - - -
05/09:30pm 24.5 CALM 0 0 1011.4 - 0.0 - Partly cloudy 10 - - - -
05/09:00pm 24.9 CALM 0 0 1011.1 - 0.0 - Partly cloudy 10 - - - -
05/08:30pm 25.3 CALM 0 0 1010.8 - 0.0 - Partly cloudy 10 - - - -
05/08:00pm 25.4 CALM 0 3 1010.4 - 0.0 - Cloudy 10 - - - -
05/07:30pm 25.5 SSE 3 5 1010.1 - 0.0 - Partly cloudy 10 - - - -
05/07:00pm 25.9 SSE 3 5 1008.2 - 0.0 - Cloudy 10 - - - -
05/06:30pm 26.1 SSE 3 5 1009.4 - 0.0 - Cloudy 10 - - - -
05/06:00pm 26.3 SSE 4 6 1009.1 - 0.0 - Cloudy 10 - - - -
05/05:30pm 26.2 SSE 4 6 1009.0 - 0.0 - Cloudy 10 - - - -
05/05:00pm 26.6 SE 6 10 1009.1 - 0.0 - Partly cloudy 10 - - - -
05/04:30pm 27.0 S 5 8 1009.0 - 0.0 - Partly cloudy 10 - - - -
05/04:00pm 26.8 SSE 6 10 1007.4 - 0.0 - Cloudy 10 - - - -
05/03:30pm 26.8 SSE 5 8 1009.4 - 0.0 - Partly cloudy 10 - - - -
05/03:00pm 27.0 S 5 8 1009.6 - 0.0 - Partly cloudy 10 - - - -
05/02:30pm 27.6 SSW 3 5 1009.9 - 0.0 - Partly cloudy 10 - - - -
05/02:00pm 26.4 SW 3 5 1010.2 - 0.0 - Cloudy 10 - - - -
05/01:46pm 25.8 SW 1 4 1010.4 - 0.0 - Cloudy 10 - - - -
05/01:30pm 25.3 SW 2 4 1010.7 - 0.0 - Partly cloudy 5 - - - -
05/01:24pm 25.5 SW 3 6 1010.7 - 0.0 - Partly cloudy 6 - - - -
05/01:00pm 25.9 ESE 3 6 1009.4 - 0.0 - Cloudy 10 - - - -
05/12:30pm 26.4 ESE 6 9 1011.2 - 0.0 - Cloudy 10 - - - -
05/12:00pm 27.0 SE 6 10 1011.5 - 0.0 - Cloudy 10 - - - -
05/11:30am 27.1 SE 5 8 1011.7 - 0.0 - Cloudy 10 - - - -

Other Formats:

Comma delimited format used in spreadsheet applications
http://www.bom.gov.au/fwo/IDW60701/IDW60701.96995.axf

JavaScript Object Notation format (JSON) in row-major order
http://www.bom.gov.au/fwo/IDW60701/IDW60701.96995.json